ADDS TAF Board (Experimental) INFO

IDs: Format: Expanded Condensed

Updated at: 0947 UTC 30 Sep 2014

KSAN - San Diego Intl Arpt, CA, US

Issued at 0906 UTC 30 Sep 2014
Time0851Z30/10Z30/11Z30/12Z30/13Z30/14Z30/15Z30/16Z30/17Z30/18Z30/19Z30/20Z30/21Z30/22Z
TypeOBSPRVLPRVLPRVLPRVLPRVLPRVLPRVLPRVLPRVLPRVLPRVLPRVLPRVL
VIS10>6>6>6>6>6>6>6>6>6>6>6>6>6
CIG----------------------------
CoverCLRSCTSCTSCTSCTSCTSCTSCTSCTSCTSKCSKCSKCSKC
FltCat--VFRVFRVFRVFRVFRVFRVFRVFRVFRVFRVFRVFRVFR
WX----------------------------
WDirVRBVRBVRBVRBVRBVRBVRBVRBVRBVRB270270270270
WSpd05555555558888
WGst----------------------------
R09/27
XWndVRBVRBVRBVRBVRBVRBVRBVRBVRBVRB-2-2-2-2
HWndVRBVRBVRBVRBVRBVRBVRBVRBVRBVRB-8-8-8-8
Raw TAF
KSAN 300906Z 3009/0112 VRB05KT P6SM SCT015
  FM301900 27008KT P6SM SKC
  FM010200 VRB04KT P6SM SCT012
  FM010500 VRB03KT P6SM BKN011


Raw METAR
KSAN 300851Z 00000KT 10SM CLR 20/15 A2989 RMK AO2 SLP121 T02000150 58004

TAF Board Legend

Hazard VFR MVFR IFR LIFR
Visibility (sm) >5 3≤X≤5 1≤X<3 <1
Ceiling (100 ft) >30 10≤X≤30 5≤X<10 <5
Wind Speed (kt) <10 10≤X<20 20≤X<30 ≥30
Wind Gust (kt) <15 15≤X<25 25≤X<35 ≥35
Weather No Wx Reported VCTS,-TS,-FZRA TS,FZRA +TS,+FZRA


Page loaded:  09:47 UTC  |   02:47 AM Pacific  |   03:47 AM Mountain  |   04:47 AM Central  |   05:47 AM Eastern

 

ADVISORIES

FORECASTS

FORECASTS

OBSERVATIONS

USER TOOLS

ABOUT US